メインページ
METAR-TAF:

METAR-TAF

空港 :

メアリー, トルクメニスタン

緯度: 37-36-24N, 経度: 061-54-05E, 海抜: 222m

現時点の気象観測

当レポートは15分前の18:00(UTC)に作成
東/北東の風 6kt
気温 5°C
湿度 56%
気圧 1033 hPa
視程: 6000m
高度10000ftの曇り

METAR: UTAM 171800Z 06006KT 6000 OVC100 05/M03 Q1033 R88/CLRD70 NOSIG

時間: 23:15 (18:15 UTC)

予報

当レポートは1時間45分前の16:30(UTC)に作成
予報は17日の 18時(UTC)から 18日の 18時(UTC)まで有効
変向風 4kt
視程: 5000m
高度2000ftの千切れ雲あり
18日の 00時(UTC)から 18日の 05時(UTC)まで一時的に
視程: 2000m
18日の 05時(UTC)から 18日の 06時(UTC)まで徐々に
北/北東の風 14kt

TAF: UTAM 171630Z 1718/1818 VRB04KT 5000 BKN020 TEMPO 1800/1805 2000 BR BECMG 1805/1806 03014KT

4,000以上の空港の気象観測と天気予報(METAR報とTAF報)

利用可能な観測所は地図上に黄色い丸と赤い丸で示す。

丸の上にカーソルを重ねると観測所名を参照できる。

次にクリックすると気象観測と天気予報を参照できる。

マップの切り替え:黒色「×」印の緑ボタンをクリックして拡大、「-」印の緑ボタンをクリックして縮小、緑色の三角印をクリックして隣りの地図に切り替え


METAR-TAF: